首页
METAR-TAF:

METAR-TAF

机场 :

史高比耶亞歷山大大帝機場

斯科普里, 馬其頓共和國

纬度: 41-58N, 经度: 021-39E, 海拔: 238米

当前天气观测

该预报发布于33分钟前的23:00 UTC
风速3节,风向西
温度 12°C
湿度 88%
气压 1015 hPa
能见度10公里或以上
阴天层高于5000英尺
小雨

METAR: LWSK 312300Z 26003KT 9999 -RA OVC050 12/10 Q1015 NOSIG

时间: 01:33 (23:33 UTC)

预报

该预报发布于3小时和3分钟前的20:30 UTC
预报有效从31日的 21点(UTC)到 01日的 21点(UTC)
风速2节,风向多变
能见度10公里或以上
多云层高于5000英尺
短暂存在
从 01日的 10点(UTC)到 01日的 18点(UTC)
少量云层高于3300英尺, 塔状积云.
多云层高于5000英尺

TAF: LWSK 312030Z 3121/0121 VRB02KT 9999 BKN050 TEMPO 0110/0118 02012/25KT RA FEW033TCU BKN050

超过4000个机场的气象观测和天气预报(METAR&TAF报告)。

可查询的气象台以黄色和红色小点在地图上表示。

将鼠标移到小点上方,可查看气象台名称。

然后点击查看天气观测和预报。

如需切换地图:点击带黑十字的绿色按钮放大地图;点击带横线的绿色按钮缩小地图;或者点击绿色箭头查看邻近地区的地图。


METAR-TAF: